Thai Harvest — V7XQ5 — position and weather

sailwx.info

Track history (hours):
 
Tides and Currents Weather Stations Pressure Air Temp Water Temp Dewpoint Dewpoint Depression Visibility Wind Speed Wind Dir Waves Ship Positions

Thai Harvest

Last reported at 2014-Nov-19 21:32 UTC. Time now 2014-Nov-28 08:37 UTC.
Position S 29°45' E 031°47'.
Warning: this ship's position is 8 days out of date.

Length 174 m; draft 11.6 m.

Type: Cargo ship. MMSI: 538004544.

Date/timePositionNaut miles runAvg speedWind from/ knotsBaromVisibWave heightAir tempDewpointWater temp
2014-Nov-19 21:32S 29°45' E 031°47'10 9.9
2014-Nov-19 20:33S 29°46' E 031°36'1110.5
2014-Nov-19 19:33S 29°48' E 031°24'1110.8
2014-Nov-19 18:33S 29°49' E 031°12'8 7.9
2014-Nov-19 17:33S 29°52' E 031°03'2 1.7
2014-Nov-19 16:31S 29°53' E 031°01'0 0.0
2014-Nov-19 15:25S 29°53' E 031°01'0 0.0
2014-Nov-19 14:31S 29°53' E 031°01'0 0.0
2014-Nov-19 13:31S 29°53' E 031°01'0 0.0
2014-Nov-19 12:31S 29°53' E 031°01'0 0.0
2014-Nov-19 11:31S 29°53' E 031°01'1 0.6
2014-Nov-19 10:33S 29°53' E 031°02'6 5.6
2014-Nov-19 09:33S 29°49' E 031°07'3 2.8
2014-Nov-19 08:33S 29°48' E 031°10'1 1.2
2014-Nov-19 07:33S 29°48' E 031°09'1 0.6
2014-Nov-19 06:33S 29°49' E 031°09'6 5.7
2014-Nov-19 05:33S 29°44' E 031°12'9 9.1
2014-Nov-19 04:33S 29°38' E 031°20'1010.0
2014-Nov-19 03:34S 29°30' E 031°28'10 9.8
2014-Nov-19 02:33S 29°24' E 031°36'  
2014-Nov-14 23:32S 29°15' E 031°45'9 9.3
2014-Nov-14 22:33S 29°21' E 031°38'9 9.2
2014-Nov-14 21:33S 29°28' E 031°31'9 9.0
2014-Nov-14 20:33S 29°35' E 031°23'9 9.0
2014-Nov-14 19:33S 29°41' E 031°16'9 8.9
2014-Nov-14 18:33S 29°47' E 031°09'8 7.7
2014-Nov-14 17:33S 29°52' E 031°02'1 1.1
2014-Nov-14 16:32S 29°52' E 031°00'0 0.0
2014-Nov-14 15:32S 29°52' E 031°00'0 0.0
2014-Nov-14 14:32S 29°52' E 031°00'0 0.0
2014-Nov-14 12:32S 29°52' E 031°00'0 0.0
2014-Nov-14 11:32S 29°52' E 031°00'0 0.0
2014-Nov-14 10:32S 29°52' E 031°00'0 0.0
2014-Nov-14 09:26S 29°52' E 031°00'0 0.0
2014-Nov-14 08:14S 29°52' E 031°00'0 0.0
2014-Nov-14 07:32S 29°52' E 031°00'0 0.0
2014-Nov-14 06:32S 29°52' E 031°00'0 0.0
2014-Nov-14 05:32S 29°52' E 031°00'0 0.0
2014-Nov-14 04:32S 29°52' E 031°00'0 0.0
2014-Nov-14 03:32S 29°52' E 031°00'0 0.0
2014-Nov-14 02:32S 29°52' E 031°00'0 0.0
2014-Nov-14 01:32S 29°52' E 031°00'0 0.0
2014-Nov-14 00:32S 29°52' E 031°00'0 0.0
2014-Nov-13 23:32S 29°52' E 031°00'0 0.0
2014-Nov-13 22:32S 29°52' E 031°00'0 0.0
2014-Nov-13 21:32S 29°52' E 031°00'0 0.0
2014-Nov-13 20:32S 29°52' E 031°00'0 0.0
2014-Nov-13 19:32S 29°52' E 031°00'0 0.0
2014-Nov-13 18:32S 29°52' E 031°00'0 0.0
2014-Nov-13 17:32S 29°52' E 031°00'0 0.0
2014-Nov-13 16:32S 29°52' E 031°00'0 0.0
2014-Nov-13 15:32S 29°52' E 031°00'0 0.0
2014-Nov-13 14:32S 29°52' E 031°00'0 0.0
2014-Nov-13 13:32S 29°52' E 031°00'0 0.0
2014-Nov-13 12:32S 29°52' E 031°00'0 0.0
2014-Nov-13 11:32S 29°52' E 031°00'0 0.0
2014-Nov-13 10:32S 29°52' E 031°00'0 0.0
2014-Nov-13 09:32S 29°52' E 031°00'0 0.0
2014-Nov-13 08:32S 29°52' E 031°00'0 0.0
2014-Nov-13 07:32S 29°52' E 031°00'0 0.0
2014-Nov-13 06:32S 29°52' E 031°00'0 0.0
2014-Nov-13 05:26S 29°52' E 031°00'0 0.0
2014-Nov-13 04:32S 29°52' E 031°00'0 0.0
2014-Nov-13 03:32S 29°52' E 031°00'0 0.0
2014-Nov-13 02:32S 29°52' E 031°00'0 0.0
2014-Nov-13 01:32S 29°52' E 031°00'0 0.0
2014-Nov-13 00:26S 29°52' E 031°00'0 0.0
2014-Nov-12 23:32S 29°52' E 031°00'0 0.0
2014-Nov-12 22:32S 29°52' E 031°00'0 0.0
2014-Nov-12 21:32S 29°52' E 031°00'0 0.0
2014-Nov-12 20:32S 29°52' E 031°00'0 0.0
2014-Nov-12 19:26S 29°52' E 031°00'0 0.0
2014-Nov-12 18:32S 29°52' E 031°00'0 0.0
2014-Nov-12 17:32S 29°52' E 031°00'0 0.0
2014-Nov-12 16:32S 29°52' E 031°00'0 0.0
2014-Nov-12 15:32S 29°52' E 031°00'0 0.0
2014-Nov-12 14:32S 29°52' E 031°00'0 0.0
2014-Nov-12 13:32S 29°52' E 031°00'0 0.0
2014-Nov-12 12:32S 29°52' E 031°00'0 0.0
2014-Nov-12 11:32S 29°52' E 031°00'0 0.0
2014-Nov-12 10:32S 29°52' E 031°00'0 0.0
2014-Nov-12 09:32S 29°52' E 031°00'0 0.0
2014-Nov-12 08:32S 29°52' E 031°00'0 0.0
2014-Nov-12 07:32S 29°52' E 031°00'0 0.0
2014-Nov-12 06:26S 29°52' E 031°00'0 0.0
2014-Nov-12 05:32S 29°52' E 031°00'0 0.0
2014-Nov-12 04:32S 29°52' E 031°00'0 0.0
2014-Nov-12 03:32S 29°52' E 031°00'0 0.0
2014-Nov-12 02:32S 29°52' E 031°00'0 0.0
2014-Nov-12 01:32S 29°52' E 031°00'0 0.0
2014-Nov-12 00:32S 29°52' E 031°00'0 0.0
2014-Nov-11 23:32S 29°52' E 031°00'0 0.0
2014-Nov-11 22:32S 29°52' E 031°00'0 0.0
2014-Nov-11 21:32S 29°52' E 031°00'0 0.0
2014-Nov-11 20:32S 29°52' E 031°00'0 0.0
2014-Nov-11 19:32S 29°52' E 031°00'0 0.0
2014-Nov-11 18:32S 29°52' E 031°00'0 0.0
2014-Nov-11 17:32S 29°52' E 031°00'0 0.0
2014-Nov-11 16:32S 29°52' E 031°00'0 0.0
2014-Nov-11 15:26S 29°52' E 031°00'0 0.0
2014-Nov-11 14:32S 29°52' E 031°00'0 0.0
2014-Nov-11 13:32S 29°52' E 031°00'0 0.0
2014-Nov-11 12:32S 29°52' E 031°00'0 0.0
2014-Nov-11 11:32S 29°52' E 031°00'0 0.0
2014-Nov-11 10:32S 29°52' E 031°00'0 0.0
2014-Nov-11 09:32S 29°52' E 031°00'0 0.0
2014-Nov-11 08:32S 29°52' E 031°00'0 0.0
2014-Nov-11 07:32S 29°52' E 031°00'0 0.0
2014-Nov-11 06:32S 29°52' E 031°00'0 0.0
2014-Nov-11 05:32S 29°52' E 031°00'0 0.0
2014-Nov-11 04:32S 29°52' E 031°00'0 0.0
2014-Nov-11 03:32S 29°52' E 031°00'0 0.0
2014-Nov-11 02:32S 29°52' E 031°00'0 0.0
2014-Nov-11 01:32S 29°52' E 031°00'0 0.0
2014-Nov-11 00:32S 29°52' E 031°00'0 0.0
2014-Nov-10 23:32S 29°52' E 031°00'0 0.0
2014-Nov-10 22:32S 29°52' E 031°00'0 0.0
2014-Nov-10 21:32S 29°52' E 031°00'0 0.0
2014-Nov-10 20:32S 29°52' E 031°00'0 0.0
2014-Nov-10 19:32S 29°52' E 031°00'0 0.0
2014-Nov-10 18:26S 29°52' E 031°00'0 0.0
2014-Nov-10 17:32S 29°52' E 031°00'0 0.0
2014-Nov-10 16:32S 29°52' E 031°00'0 0.0
2014-Nov-10 15:32S 29°52' E 031°00'0 0.0
2014-Nov-10 14:32S 29°52' E 031°00'0 0.0
2014-Nov-10 13:32S 29°52' E 031°00'0 0.0
2014-Nov-10 12:32S 29°52' E 031°00'0 0.0
2014-Nov-10 11:32S 29°52' E 031°00'0 0.0
2014-Nov-10 10:32S 29°52' E 031°00'0 0.0
2014-Nov-10 09:32S 29°52' E 031°00'0 0.0
2014-Nov-10 08:32S 29°52' E 031°00'0 0.0
2014-Nov-10 07:32S 29°52' E 031°00'0 0.0
2014-Nov-10 06:32S 29°52' E 031°00'0 0.0
2014-Nov-10 05:32S 29°52' E 031°00'0 0.0
2014-Nov-10 04:32S 29°52' E 031°00'0 0.0
2014-Nov-10 03:32S 29°52' E 031°00'0 0.0
2014-Nov-10 02:32S 29°52' E 031°00'0 0.0
2014-Nov-10 01:32S 29°52' E 031°00'0 0.0
2014-Nov-10 00:32S 29°52' E 031°00'0 0.0
2014-Nov-09 23:32S 29°52' E 031°00'0 0.0
2014-Nov-09 22:32S 29°52' E 031°00'  
Track history (hours):
 
Tides and Currents Weather Stations Pressure Air Temp Water Temp Dewpoint Dewpoint Depression Visibility Wind Speed Wind Dir Waves Ship Positions

Thai Harvest

Last reported at 2014-Nov-19 21:32 UTC. Time now 2014-Nov-28 08:37 UTC.
Position S 29°45' E 031°47'.
Warning: this ship's position is 8 days out of date.

Length 174 m; draft 11.6 m.

Type: Cargo ship. MMSI: 538004544.

Date/timePositionNaut miles runAvg speedWind from/ knotsBaromVisibWave heightAir tempDewpointWater temp
2014-Nov-19 21:32S 29°45' E 031°47'10 9.9
2014-Nov-19 20:33S 29°46' E 031°36'1110.5
2014-Nov-19 19:33S 29°48' E 031°24'1110.8
2014-Nov-19 18:33S 29°49' E 031°12'8 7.9
2014-Nov-19 17:33S 29°52' E 031°03'2 1.7
2014-Nov-19 16:31S 29°53' E 031°01'0 0.0
2014-Nov-19 15:25S 29°53' E 031°01'0 0.0
2014-Nov-19 14:31S 29°53' E 031°01'0 0.0
2014-Nov-19 13:31S 29°53' E 031°01'0 0.0
2014-Nov-19 12:31S 29°53' E 031°01'0 0.0
2014-Nov-19 11:31S 29°53' E 031°01'1 0.6
2014-Nov-19 10:33S 29°53' E 031°02'6 5.6
2014-Nov-19 09:33S 29°49' E 031°07'3 2.8
2014-Nov-19 08:33S 29°48' E 031°10'1 1.2
2014-Nov-19 07:33S 29°48' E 031°09'1 0.6
2014-Nov-19 06:33S 29°49' E 031°09'6 5.7
2014-Nov-19 05:33S 29°44' E 031°12'9 9.1
2014-Nov-19 04:33S 29°38' E 031°20'1010.0
2014-Nov-19 03:34S 29°30' E 031°28'10 9.8
2014-Nov-19 02:33S 29°24' E 031°36'  
2014-Nov-14 23:32S 29°15' E 031°45'9 9.3
2014-Nov-14 22:33S 29°21' E 031°38'9 9.2
2014-Nov-14 21:33S 29°28' E 031°31'9 9.0
2014-Nov-14 20:33S 29°35' E 031°23'9 9.0
2014-Nov-14 19:33S 29°41' E 031°16'9 8.9
2014-Nov-14 18:33S 29°47' E 031°09'8 7.7
2014-Nov-14 17:33S 29°52' E 031°02'1 1.1
2014-Nov-14 16:32S 29°52' E 031°00'0 0.0
2014-Nov-14 15:32S 29°52' E 031°00'0 0.0
2014-Nov-14 14:32S 29°52' E 031°00'0 0.0
2014-Nov-14 12:32S 29°52' E 031°00'0 0.0
2014-Nov-14 11:32S 29°52' E 031°00'0 0.0
2014-Nov-14 10:32S 29°52' E 031°00'0 0.0
2014-Nov-14 09:26S 29°52' E 031°00'0 0.0
2014-Nov-14 08:14S 29°52' E 031°00'0 0.0
2014-Nov-14 07:32S 29°52' E 031°00'0 0.0
2014-Nov-14 06:32S 29°52' E 031°00'0 0.0
2014-Nov-14 05:32S 29°52' E 031°00'0 0.0
2014-Nov-14 04:32S 29°52' E 031°00'0 0.0
2014-Nov-14 03:32S 29°52' E 031°00'0 0.0
2014-Nov-14 02:32S 29°52' E 031°00'0 0.0
2014-Nov-14 01:32S 29°52' E 031°00'0 0.0
2014-Nov-14 00:32S 29°52' E 031°00'0 0.0
2014-Nov-13 23:32S 29°52' E 031°00'0 0.0
2014-Nov-13 22:32S 29°52' E 031°00'0 0.0
2014-Nov-13 21:32S 29°52' E 031°00'0 0.0
2014-Nov-13 20:32S 29°52' E 031°00'0 0.0
2014-Nov-13 19:32S 29°52' E 031°00'0 0.0
2014-Nov-13 18:32S 29°52' E 031°00'0 0.0
2014-Nov-13 17:32S 29°52' E 031°00'0 0.0
2014-Nov-13 16:32S 29°52' E 031°00'0 0.0
2014-Nov-13 15:32S 29°52' E 031°00'0 0.0
2014-Nov-13 14:32S 29°52' E 031°00'0 0.0
2014-Nov-13 13:32S 29°52' E 031°00'0 0.0
2014-Nov-13 12:32S 29°52' E 031°00'0 0.0
2014-Nov-13 11:32S 29°52' E 031°00'0 0.0
2014-Nov-13 10:32S 29°52' E 031°00'0 0.0
2014-Nov-13 09:32S 29°52' E 031°00'0 0.0
2014-Nov-13 08:32S 29°52' E 031°00'0 0.0
2014-Nov-13 07:32S 29°52' E 031°00'0 0.0
2014-Nov-13 06:32S 29°52' E 031°00'0 0.0
2014-Nov-13 05:26S 29°52' E 031°00'0 0.0
2014-Nov-13 04:32S 29°52' E 031°00'0 0.0
2014-Nov-13 03:32S 29°52' E 031°00'0 0.0
2014-Nov-13 02:32S 29°52' E 031°00'0 0.0
2014-Nov-13 01:32S 29°52' E 031°00'0 0.0
2014-Nov-13 00:26S 29°52' E 031°00'0 0.0
2014-Nov-12 23:32S 29°52' E 031°00'0 0.0
2014-Nov-12 22:32S 29°52' E 031°00'0 0.0
2014-Nov-12 21:32S 29°52' E 031°00'0 0.0
2014-Nov-12 20:32S 29°52' E 031°00'0 0.0
2014-Nov-12 19:26S 29°52' E 031°00'0 0.0
2014-Nov-12 18:32S 29°52' E 031°00'0 0.0
2014-Nov-12 17:32S 29°52' E 031°00'0 0.0
2014-Nov-12 16:32S 29°52' E 031°00'0 0.0
2014-Nov-12 15:32S 29°52' E 031°00'0 0.0
2014-Nov-12 14:32S 29°52' E 031°00'0 0.0
2014-Nov-12 13:32S 29°52' E 031°00'0 0.0
2014-Nov-12 12:32S 29°52' E 031°00'0 0.0
2014-Nov-12 11:32S 29°52' E 031°00'0 0.0
2014-Nov-12 10:32S 29°52' E 031°00'0 0.0
2014-Nov-12 09:32S 29°52' E 031°00'0 0.0
2014-Nov-12 08:32S 29°52' E 031°00'0 0.0
2014-Nov-12 07:32S 29°52' E 031°00'0 0.0
2014-Nov-12 06:26S 29°52' E 031°00'0 0.0
2014-Nov-12 05:32S 29°52' E 031°00'0 0.0
2014-Nov-12 04:32S 29°52' E 031°00'0 0.0
2014-Nov-12 03:32S 29°52' E 031°00'0 0.0
2014-Nov-12 02:32S 29°52' E 031°00'0 0.0
2014-Nov-12 01:32S 29°52' E 031°00'0 0.0
2014-Nov-12 00:32S 29°52' E 031°00'0 0.0
2014-Nov-11 23:32S 29°52' E 031°00'0 0.0
2014-Nov-11 22:32S 29°52' E 031°00'0 0.0
2014-Nov-11 21:32S 29°52' E 031°00'0 0.0
2014-Nov-11 20:32S 29°52' E 031°00'0 0.0
2014-Nov-11 19:32S 29°52' E 031°00'0 0.0
2014-Nov-11 18:32S 29°52' E 031°00'0 0.0
2014-Nov-11 17:32S 29°52' E 031°00'0 0.0
2014-Nov-11 16:32S 29°52' E 031°00'0 0.0
2014-Nov-11 15:26S 29°52' E 031°00'0 0.0
2014-Nov-11 14:32S 29°52' E 031°00'0 0.0
2014-Nov-11 13:32S 29°52' E 031°00'0 0.0
2014-Nov-11 12:32S 29°52' E 031°00'0 0.0
2014-Nov-11 11:32S 29°52' E 031°00'0 0.0
2014-Nov-11 10:32S 29°52' E 031°00'0 0.0
2014-Nov-11 09:32S 29°52' E 031°00'0 0.0
2014-Nov-11 08:32S 29°52' E 031°00'0 0.0
2014-Nov-11 07:32S 29°52' E 031°00'0 0.0
2014-Nov-11 06:32S 29°52' E 031°00'0 0.0
2014-Nov-11 05:32S 29°52' E 031°00'0 0.0
2014-Nov-11 04:32S 29°52' E 031°00'0 0.0
2014-Nov-11 03:32S 29°52' E 031°00'0 0.0
2014-Nov-11 02:32S 29°52' E 031°00'0 0.0
2014-Nov-11 01:32S 29°52' E 031°00'0 0.0
2014-Nov-11 00:32S 29°52' E 031°00'0 0.0
2014-Nov-10 23:32S 29°52' E 031°00'0 0.0
2014-Nov-10 22:32S 29°52' E 031°00'0 0.0
2014-Nov-10 21:32S 29°52' E 031°00'0 0.0
2014-Nov-10 20:32S 29°52' E 031°00'0 0.0
2014-Nov-10 19:32S 29°52' E 031°00'0 0.0
2014-Nov-10 18:26S 29°52' E 031°00'0 0.0
2014-Nov-10 17:32S 29°52' E 031°00'0 0.0
2014-Nov-10 16:32S 29°52' E 031°00'0 0.0
2014-Nov-10 15:32S 29°52' E 031°00'0 0.0
2014-Nov-10 14:32S 29°52' E 031°00'0 0.0
2014-Nov-10 13:32S 29°52' E 031°00'0 0.0
2014-Nov-10 12:32S 29°52' E 031°00'0 0.0
2014-Nov-10 11:32S 29°52' E 031°00'0 0.0
2014-Nov-10 10:32S 29°52' E 031°00'0 0.0
2014-Nov-10 09:32S 29°52' E 031°00'0 0.0
2014-Nov-10 08:32S 29°52' E 031°00'0 0.0
2014-Nov-10 07:32S 29°52' E 031°00'0 0.0
2014-Nov-10 06:32S 29°52' E 031°00'0 0.0
2014-Nov-10 05:32S 29°52' E 031°00'0 0.0
2014-Nov-10 04:32S 29°52' E 031°00'0 0.0
2014-Nov-10 03:32S 29°52' E 031°00'0 0.0
2014-Nov-10 02:32S 29°52' E 031°00'0 0.0
2014-Nov-10 01:32S 29°52' E 031°00'0 0.0
2014-Nov-10 00:32S 29°52' E 031°00'0 0.0
2014-Nov-09 23:32S 29°52' E 031°00'0 0.0
2014-Nov-09 22:32S 29°52' E 031°00'  

Dump ship's entire track history